sensor_id;sensor_type;location;lat;lon;timestamp;P1;durP1;ratioP1;P2;durP2;ratioP2
24223;SDS011;12359;49.716;9.212;2022-09-03T00:10:52;1.83;;;1.15;;
24223;SDS011;12359;49.716;9.212;2022-09-03T00:13:37;1.83;;;1.73;;
24223;SDS011;12359;49.716;9.212;2022-09-03T00:16:10;1.58;;;1.33;;
24223;SDS011;12359;49.716;9.212;2022-09-03T00:18:42;1.83;;;1.38;;
24223;SDS011;12359;49.716;9.212;2022-09-03T00:21:15;1.25;;;1.10;;
24223;SDS011;12359;49.716;9.212;2022-09-03T00:23:44;3.42;;;1.73;;
24223;SDS011;12359;49.716;9.212;2022-09-03T00:31:44;3.05;;;1.60;;
24223;SDS011;12359;49.716;9.212;2022-09-03T00:36:51;2.45;;;1.45;;
24223;SDS011;12359;49.716;9.212;2022-09-03T00:39:18;2.65;;;1.70;;
24223;SDS011;12359;49.716;9.212;2022-09-03T00:45:02;2.38;;;1.65;;
24223;SDS011;12359;49.716;9.212;2022-09-03T00:48:00;1.67;;;1.50;;
24223;SDS011;12359;49.716;9.212;2022-09-03T00:50:40;1.42;;;1.33;;
24223;SDS011;12359;49.716;9.212;2022-09-03T00:55:54;4.43;;;1.45;;
24223;SDS011;12359;49.716;9.212;2022-09-03T01:01:06;2.22;;;1.55;;
24223;SDS011;12359;49.716;9.212;2022-09-03T01:06:18;2.63;;;1.63;;
24223;SDS011;12359;49.716;9.212;2022-09-03T01:09:11;7.57;;;1.63;;
24223;SDS011;12359;49.716;9.212;2022-09-03T01:30:04;3.38;;;1.70;;
24223;SDS011;12359;49.716;9.212;2022-09-03T01:46:41;1.33;;;1.23;;
24223;SDS011;12359;49.716;9.212;2022-09-03T01:52:04;2.42;;;1.63;;
24223;SDS011;12359;49.716;9.212;2022-09-03T01:54:44;1.67;;;1.58;;
24223;SDS011;12359;49.716;9.212;2022-09-03T02:02:30;2.47;;;2.00;;
24223;SDS011;12359;49.716;9.212;2022-09-03T02:07:36;1.85;;;1.63;;
24223;SDS011;12359;49.716;9.212;2022-09-03T02:10:06;1.85;;;1.75;;
24223;SDS011;12359;49.716;9.212;2022-09-03T02:12:35;1.98;;;1.55;;
24223;SDS011;12359;49.716;9.212;2022-09-03T02:15:04;3.45;;;1.48;;
24223;SDS011;12359;49.716;9.212;2022-09-03T02:17:32;2.40;;;1.20;;
24223;SDS011;12359;49.716;9.212;2022-09-03T02:20:00;1.60;;;1.45;;
24223;SDS011;12359;49.716;9.212;2022-09-03T02:22:29;2.53;;;1.77;;
24223;SDS011;12359;49.716;9.212;2022-09-03T02:24:56;4.80;;;1.20;;
24223;SDS011;12359;49.716;9.212;2022-09-03T02:27:22;1.85;;;1.73;;
24223;SDS011;12359;49.716;9.212;2022-09-03T02:29:47;1.63;;;1.40;;
24223;SDS011;12359;49.716;9.212;2022-09-03T02:32:13;4.13;;;1.63;;
24223;SDS011;12359;49.716;9.212;2022-09-03T02:34:40;1.60;;;1.50;;
24223;SDS011;12359;49.716;9.212;2022-09-03T02:37:13;2.35;;;1.60;;
24223;SDS011;12359;49.716;9.212;2022-09-03T02:39:40;1.50;;;1.40;;
24223;SDS011;12359;49.716;9.212;2022-09-03T02:42:06;6.97;;;1.73;;
24223;SDS011;12359;49.716;9.212;2022-09-03T02:44:37;2.00;;;1.80;;
24223;SDS011;12359;49.716;9.212;2022-09-03T02:47:12;2.38;;;1.35;;
24223;SDS011;12359;49.716;9.212;2022-09-03T02:49:39;1.75;;;1.65;;
24223;SDS011;12359;49.716;9.212;2022-09-03T02:52:06;2.33;;;1.10;;
24223;SDS011;12359;49.716;9.212;2022-09-03T02:54:37;10.95;;;2.20;;
24223;SDS011;12359;49.716;9.212;2022-09-03T02:57:07;2.15;;;1.45;;
24223;SDS011;12359;49.716;9.212;2022-09-03T02:59:33;1.73;;;1.63;;
24223;SDS011;12359;49.716;9.212;2022-09-03T03:02:00;1.67;;;1.50;;
24223;SDS011;12359;49.716;9.212;2022-09-03T03:04:27;3.53;;;1.50;;
24223;SDS011;12359;49.716;9.212;2022-09-03T03:06:53;2.67;;;2.38;;
24223;SDS011;12359;49.716;9.212;2022-09-03T03:09:19;1.80;;;1.67;;
24223;SDS011;12359;49.716;9.212;2022-09-03T03:11:45;2.70;;;2.20;;
24223;SDS011;12359;49.716;9.212;2022-09-03T03:14:13;1.83;;;1.60;;
24223;SDS011;12359;49.716;9.212;2022-09-03T03:16:40;1.50;;;1.40;;
24223;SDS011;12359;49.716;9.212;2022-09-03T03:19:05;1.95;;;1.40;;
24223;SDS011;12359;49.716;9.212;2022-09-03T03:21:31;1.90;;;1.80;;
24223;SDS011;12359;49.716;9.212;2022-09-03T03:23:57;2.17;;;1.70;;
24223;SDS011;12359;49.716;9.212;2022-09-03T03:26:22;3.63;;;1.92;;
24223;SDS011;12359;49.716;9.212;2022-09-03T03:28:49;1.60;;;1.50;;
24223;SDS011;12359;49.716;9.212;2022-09-03T03:31:20;1.75;;;1.63;;
24223;SDS011;12359;49.716;9.212;2022-09-03T03:33:53;1.85;;;1.70;;
24223;SDS011;12359;49.716;9.212;2022-09-03T03:36:25;1.60;;;1.50;;
24223;SDS011;12359;49.716;9.212;2022-09-03T03:38:54;1.88;;;1.50;;
24223;SDS011;12359;49.716;9.212;2022-09-03T03:41:22;2.47;;;1.38;;
24223;SDS011;12359;49.716;9.212;2022-09-03T03:43:56;2.55;;;1.73;;
24223;SDS011;12359;49.716;9.212;2022-09-03T03:46:23;2.00;;;1.50;;
24223;SDS011;12359;49.716;9.212;2022-09-03T03:48:52;1.80;;;1.45;;
24223;SDS011;12359;49.716;9.212;2022-09-03T03:51:19;9.98;;;1.90;;
24223;SDS011;12359;49.716;9.212;2022-09-03T03:53:44;1.85;;;1.70;;
24223;SDS011;12359;49.716;9.212;2022-09-03T03:56:11;3.58;;;2.00;;
24223;SDS011;12359;49.716;9.212;2022-09-03T03:58:39;4.75;;;1.98;;
24223;SDS011;12359;49.716;9.212;2022-09-03T04:01:12;3.88;;;1.92;;
24223;SDS011;12359;49.716;9.212;2022-09-03T04:03:40;1.65;;;1.40;;
24223;SDS011;12359;49.716;9.212;2022-09-03T04:06:07;8.45;;;2.03;;
24223;SDS011;12359;49.716;9.212;2022-09-03T04:08:34;1.33;;;1.23;;
24223;SDS011;12359;49.716;9.212;2022-09-03T04:11:02;1.70;;;1.60;;
24223;SDS011;12359;49.716;9.212;2022-09-03T04:13:29;1.38;;;1.27;;
24223;SDS011;12359;49.716;9.212;2022-09-03T04:16:00;2.25;;;1.73;;
24223;SDS011;12359;49.716;9.212;2022-09-03T04:18:27;2.72;;;1.75;;
24223;SDS011;12359;49.716;9.212;2022-09-03T04:20:57;3.60;;;1.60;;
24223;SDS011;12359;49.716;9.212;2022-09-03T04:23:24;1.90;;;1.73;;
24223;SDS011;12359;49.716;9.212;2022-09-03T04:25:51;2.03;;;1.63;;
24223;SDS011;12359;49.716;9.212;2022-09-03T04:28:17;3.55;;;2.22;;
24223;SDS011;12359;49.716;9.212;2022-09-03T04:30:42;1.80;;;1.70;;
24223;SDS011;12359;49.716;9.212;2022-09-03T04:33:08;2.47;;;1.90;;
24223;SDS011;12359;49.716;9.212;2022-09-03T04:35:33;2.25;;;1.92;;
24223;SDS011;12359;49.716;9.212;2022-09-03T04:37:59;1.85;;;1.75;;
24223;SDS011;12359;49.716;9.212;2022-09-03T04:40:25;3.95;;;2.10;;
24223;SDS011;12359;49.716;9.212;2022-09-03T04:42:55;7.93;;;2.10;;
24223;SDS011;12359;49.716;9.212;2022-09-03T04:45:21;4.90;;;2.53;;
24223;SDS011;12359;49.716;9.212;2022-09-03T04:47:57;15.73;;;4.85;;
24223;SDS011;12359;49.716;9.212;2022-09-03T04:50:26;4.40;;;2.80;;
24223;SDS011;12359;49.716;9.212;2022-09-03T04:52:59;2.47;;;1.55;;
24223;SDS011;12359;49.716;9.212;2022-09-03T04:55:26;1.75;;;1.52;;
24223;SDS011;12359;49.716;9.212;2022-09-03T04:57:52;2.25;;;1.58;;
24223;SDS011;12359;49.716;9.212;2022-09-03T05:00:18;3.35;;;1.88;;
24223;SDS011;12359;49.716;9.212;2022-09-03T05:02:44;3.03;;;2.00;;
24223;SDS011;12359;49.716;9.212;2022-09-03T05:05:15;1.83;;;1.70;;
24223;SDS011;12359;49.716;9.212;2022-09-03T05:07:41;2.90;;;1.55;;
24223;SDS011;12359;49.716;9.212;2022-09-03T05:10:08;4.20;;;1.65;;
24223;SDS011;12359;49.716;9.212;2022-09-03T05:12:47;1.70;;;1.48;;
24223;SDS011;12359;49.716;9.212;2022-09-03T05:15:21;2.17;;;1.80;;
24223;SDS011;12359;49.716;9.212;2022-09-03T05:17:47;1.50;;;1.40;;
24223;SDS011;12359;49.716;9.212;2022-09-03T05:20:12;5.32;;;1.92;;
24223;SDS011;12359;49.716;9.212;2022-09-03T05:22:39;1.77;;;1.67;;
24223;SDS011;12359;49.716;9.212;2022-09-03T05:25:04;2.72;;;1.70;;
24223;SDS011;12359;49.716;9.212;2022-09-03T05:27:30;2.88;;;1.50;;
24223;SDS011;12359;49.716;9.212;2022-09-03T05:29:56;2.60;;;1.65;;
24223;SDS011;12359;49.716;9.212;2022-09-03T05:32:22;1.88;;;1.55;;
24223;SDS011;12359;49.716;9.212;2022-09-03T05:34:49;3.83;;;1.90;;
24223;SDS011;12359;49.716;9.212;2022-09-03T05:37:14;3.20;;;1.50;;
24223;SDS011;12359;49.716;9.212;2022-09-03T05:39:40;2.65;;;2.10;;
24223;SDS011;12359;49.716;9.212;2022-09-03T05:42:06;1.48;;;1.38;;
24223;SDS011;12359;49.716;9.212;2022-09-03T05:44:31;1.88;;;1.52;;
24223;SDS011;12359;49.716;9.212;2022-09-03T05:46:57;2.13;;;1.70;;
24223;SDS011;12359;49.716;9.212;2022-09-03T05:49:24;10.43;;;1.95;;
24223;SDS011;12359;49.716;9.212;2022-09-03T05:51:49;3.40;;;2.05;;
24223;SDS011;12359;49.716;9.212;2022-09-03T05:54:15;1.77;;;1.67;;
24223;SDS011;12359;49.716;9.212;2022-09-03T05:56:41;4.80;;;1.77;;
24223;SDS011;12359;49.716;9.212;2022-09-03T05:59:07;1.67;;;1.27;;
24223;SDS011;12359;49.716;9.212;2022-09-03T06:01:38;1.40;;;1.30;;
24223;SDS011;12359;49.716;9.212;2022-09-03T06:04:07;1.73;;;1.27;;
24223;SDS011;12359;49.716;9.212;2022-09-03T06:06:36;1.75;;;1.40;;
24223;SDS011;12359;49.716;9.212;2022-09-03T06:09:05;3.67;;;1.30;;
24223;SDS011;12359;49.716;9.212;2022-09-03T06:11:33;1.63;;;1.52;;
24223;SDS011;12359;49.716;9.212;2022-09-03T06:14:01;1.98;;;1.48;;
24223;SDS011;12359;49.716;9.212;2022-09-03T06:16:30;3.83;;;1.52;;
24223;SDS011;12359;49.716;9.212;2022-09-03T06:18:58;1.60;;;1.42;;
24223;SDS011;12359;49.716;9.212;2022-09-03T06:21:24;2.30;;;1.42;;
24223;SDS011;12359;49.716;9.212;2022-09-03T06:23:51;3.03;;;1.40;;
24223;SDS011;12359;49.716;9.212;2022-09-03T06:26:20;1.65;;;1.55;;
24223;SDS011;12359;49.716;9.212;2022-09-03T06:28:47;2.42;;;1.58;;
24223;SDS011;12359;49.716;9.212;2022-09-03T06:31:14;1.38;;;1.27;;
24223;SDS011;12359;49.716;9.212;2022-09-03T06:33:41;1.88;;;1.42;;
24223;SDS011;12359;49.716;9.212;2022-09-03T06:36:11;4.22;;;1.55;;
24223;SDS011;12359;49.716;9.212;2022-09-03T06:38:39;4.53;;;1.40;;
24223;SDS011;12359;49.716;9.212;2022-09-03T06:41:09;1.67;;;1.52;;
24223;SDS011;12359;49.716;9.212;2022-09-03T06:43:37;2.38;;;1.73;;
24223;SDS011;12359;49.716;9.212;2022-09-03T06:46:05;4.40;;;1.95;;
24223;SDS011;12359;49.716;9.212;2022-09-03T06:48:39;5.72;;;2.17;;
24223;SDS011;12359;49.716;9.212;2022-09-03T06:51:07;7.05;;;1.73;;
24223;SDS011;12359;49.716;9.212;2022-09-03T06:53:39;2.22;;;1.75;;
24223;SDS011;12359;49.716;9.212;2022-09-03T06:56:10;2.13;;;1.60;;
24223;SDS011;12359;49.716;9.212;2022-09-03T06:58:41;2.85;;;2.00;;
24223;SDS011;12359;49.716;9.212;2022-09-03T07:01:09;2.28;;;1.90;;
24223;SDS011;12359;49.716;9.212;2022-09-03T07:03:37;5.43;;;4.75;;
24223;SDS011;12359;49.716;9.212;2022-09-03T07:06:04;7.63;;;5.95;;
24223;SDS011;12359;49.716;9.212;2022-09-03T07:08:32;5.25;;;4.75;;
24223;SDS011;12359;49.716;9.212;2022-09-03T07:11:02;3.45;;;2.90;;
24223;SDS011;12359;49.716;9.212;2022-09-03T07:13:33;3.08;;;2.55;;
24223;SDS011;12359;49.716;9.212;2022-09-03T07:16:03;3.42;;;2.75;;
24223;SDS011;12359;49.716;9.212;2022-09-03T07:18:31;3.78;;;2.72;;
24223;SDS011;12359;49.716;9.212;2022-09-03T07:21:07;2.50;;;2.30;;
24223;SDS011;12359;49.716;9.212;2022-09-03T07:23:34;3.17;;;2.28;;
24223;SDS011;12359;49.716;9.212;2022-09-03T07:26:02;2.03;;;1.80;;
24223;SDS011;12359;49.716;9.212;2022-09-03T07:28:30;4.63;;;1.85;;
24223;SDS011;12359;49.716;9.212;2022-09-03T07:31:01;2.13;;;1.92;;
24223;SDS011;12359;49.716;9.212;2022-09-03T07:33:28;3.03;;;1.70;;
24223;SDS011;12359;49.716;9.212;2022-09-03T07:35:55;2.95;;;1.90;;
24223;SDS011;12359;49.716;9.212;2022-09-03T07:38:25;3.85;;;1.75;;
24223;SDS011;12359;49.716;9.212;2022-09-03T07:40:56;4.32;;;1.92;;
24223;SDS011;12359;49.716;9.212;2022-09-03T07:43:32;2.00;;;1.88;;
24223;SDS011;12359;49.716;9.212;2022-09-03T07:45:59;1.55;;;1.42;;
24223;SDS011;12359;49.716;9.212;2022-09-03T07:48:25;3.25;;;2.17;;
24223;SDS011;12359;49.716;9.212;2022-09-03T07:50:51;2.10;;;1.90;;
24223;SDS011;12359;49.716;9.212;2022-09-03T07:53:18;2.40;;;2.20;;
24223;SDS011;12359;49.716;9.212;2022-09-03T07:55:45;1.55;;;1.40;;
24223;SDS011;12359;49.716;9.212;2022-09-03T07:58:12;1.98;;;1.80;;
24223;SDS011;12359;49.716;9.212;2022-09-03T08:00:38;1.92;;;1.77;;
24223;SDS011;12359;49.716;9.212;2022-09-03T08:03:04;2.90;;;1.95;;
24223;SDS011;12359;49.716;9.212;2022-09-03T08:05:32;1.55;;;1.45;;
24223;SDS011;12359;49.716;9.212;2022-09-03T08:08:02;3.00;;;2.08;;
24223;SDS011;12359;49.716;9.212;2022-09-03T08:10:28;3.00;;;1.88;;
24223;SDS011;12359;49.716;9.212;2022-09-03T08:12:55;2.05;;;1.95;;
24223;SDS011;12359;49.716;9.212;2022-09-03T08:15:22;3.63;;;1.90;;
24223;SDS011;12359;49.716;9.212;2022-09-03T08:17:48;1.80;;;1.70;;
24223;SDS011;12359;49.716;9.212;2022-09-03T08:20:14;3.42;;;1.63;;
24223;SDS011;12359;49.716;9.212;2022-09-03T08:22:40;3.42;;;2.40;;
24223;SDS011;12359;49.716;9.212;2022-09-03T08:25:06;3.95;;;2.20;;
24223;SDS011;12359;49.716;9.212;2022-09-03T08:27:32;3.25;;;1.92;;
24223;SDS011;12359;49.716;9.212;2022-09-03T08:29:59;3.05;;;2.45;;
24223;SDS011;12359;49.716;9.212;2022-09-03T08:32:24;5.43;;;2.72;;
24223;SDS011;12359;49.716;9.212;2022-09-03T08:34:50;15.65;;;3.05;;
24223;SDS011;12359;49.716;9.212;2022-09-03T08:37:16;3.90;;;1.80;;
24223;SDS011;12359;49.716;9.212;2022-09-03T08:39:42;5.85;;;2.80;;
24223;SDS011;12359;49.716;9.212;2022-09-03T08:54:58;5.93;;;3.28;;
24223;SDS011;12359;49.716;9.212;2022-09-03T08:58:08;6.95;;;2.65;;
24223;SDS011;12359;49.716;9.212;2022-09-03T09:16:58;4.85;;;3.47;;
24223;SDS011;12359;49.716;9.212;2022-09-03T09:25:06;3.20;;;2.90;;
24223;SDS011;12359;49.716;9.212;2022-09-03T09:27:43;3.88;;;3.45;;
24223;SDS011;12359;49.716;9.212;2022-09-03T09:30:31;7.10;;;2.95;;
24223;SDS011;12359;49.716;9.212;2022-09-03T09:32:57;6.18;;;2.78;;
24223;SDS011;12359;49.716;9.212;2022-09-03T09:35:24;3.47;;;3.15;;
24223;SDS011;12359;49.716;9.212;2022-09-03T09:37:53;3.85;;;3.33;;
24223;SDS011;12359;49.716;9.212;2022-09-03T09:40:25;12.23;;;4.07;;
24223;SDS011;12359;49.716;9.212;2022-09-03T09:45:35;8.13;;;5.00;;
24223;SDS011;12359;49.716;9.212;2022-09-03T09:48:12;6.45;;;5.00;;
24223;SDS011;12359;49.716;9.212;2022-09-03T09:51:04;9.35;;;6.75;;
24223;SDS011;12359;49.716;9.212;2022-09-03T09:53:33;13.18;;;8.23;;
24223;SDS011;12359;49.716;9.212;2022-09-03T09:55:59;16.88;;;9.15;;
24223;SDS011;12359;49.716;9.212;2022-09-03T09:58:27;17.00;;;11.50;;
24223;SDS011;12359;49.716;9.212;2022-09-03T10:00:59;18.23;;;12.88;;
24223;SDS011;12359;49.716;9.212;2022-09-03T10:03:55;8.77;;;6.50;;
24223;SDS011;12359;49.716;9.212;2022-09-03T10:06:27;5.50;;;4.70;;
24223;SDS011;12359;49.716;9.212;2022-09-03T10:09:14;4.25;;;3.53;;
24223;SDS011;12359;49.716;9.212;2022-09-03T10:11:43;3.70;;;3.15;;
24223;SDS011;12359;49.716;9.212;2022-09-03T10:14:28;4.22;;;3.15;;
24223;SDS011;12359;49.716;9.212;2022-09-03T10:17:48;3.95;;;3.55;;
24223;SDS011;12359;49.716;9.212;2022-09-03T10:20:21;4.18;;;3.65;;
24223;SDS011;12359;49.716;9.212;2022-09-03T10:23:15;6.85;;;4.57;;
24223;SDS011;12359;49.716;9.212;2022-09-03T10:26:03;7.60;;;5.20;;
24223;SDS011;12359;49.716;9.212;2022-09-03T10:28:55;8.35;;;5.65;;
24223;SDS011;12359;49.716;9.212;2022-09-03T10:34:19;9.93;;;5.53;;
24223;SDS011;12359;49.716;9.212;2022-09-03T10:37:19;8.43;;;5.90;;
24223;SDS011;12359;49.716;9.212;2022-09-03T11:07:06;5.10;;;4.60;;
24223;SDS011;12359;49.716;9.212;2022-09-03T11:12:27;3.45;;;3.15;;
24223;SDS011;12359;49.716;9.212;2022-09-03T11:17:55;4.13;;;3.20;;
24223;SDS011;12359;49.716;9.212;2022-09-03T11:20:27;4.57;;;3.45;;
24223;SDS011;12359;49.716;9.212;2022-09-03T11:22:54;4.00;;;3.35;;
24223;SDS011;12359;49.716;9.212;2022-09-03T11:25:26;5.40;;;3.35;;
24223;SDS011;12359;49.716;9.212;2022-09-03T11:33:48;3.70;;;3.10;;
24223;SDS011;12359;49.716;9.212;2022-09-03T11:36:22;4.47;;;3.17;;
24223;SDS011;12359;49.716;9.212;2022-09-03T11:38:55;4.80;;;3.03;;
24223;SDS011;12359;49.716;9.212;2022-09-03T11:43:46;3.15;;;2.85;;
24223;SDS011;12359;49.716;9.212;2022-09-03T11:51:04;3.63;;;3.05;;
24223;SDS011;12359;49.716;9.212;2022-09-03T11:54:05;4.15;;;3.28;;
24223;SDS011;12359;49.716;9.212;2022-09-03T11:56:37;5.75;;;3.97;;
24223;SDS011;12359;49.716;9.212;2022-09-03T12:01:51;7.50;;;3.90;;
24223;SDS011;12359;49.716;9.212;2022-09-03T12:04:30;5.05;;;4.05;;
24223;SDS011;12359;49.716;9.212;2022-09-03T12:18:22;7.75;;;3.65;;
24223;SDS011;12359;49.716;9.212;2022-09-03T12:26:04;4.72;;;3.65;;
24223;SDS011;12359;49.716;9.212;2022-09-03T12:28:34;5.30;;;3.28;;
24223;SDS011;12359;49.716;9.212;2022-09-03T12:36:23;4.15;;;3.00;;
24223;SDS011;12359;49.716;9.212;2022-09-03T12:38:49;2.90;;;2.65;;
24223;SDS011;12359;49.716;9.212;2022-09-03T12:41:26;3.53;;;2.85;;
24223;SDS011;12359;49.716;9.212;2022-09-03T12:43:56;4.35;;;2.78;;
24223;SDS011;12359;49.716;9.212;2022-09-03T12:46:27;3.85;;;2.90;;
24223;SDS011;12359;49.716;9.212;2022-09-03T12:48:59;3.28;;;2.67;;
24223;SDS011;12359;49.716;9.212;2022-09-03T12:51:39;3.03;;;2.72;;
24223;SDS011;12359;49.716;9.212;2022-09-03T12:54:07;5.05;;;2.53;;
24223;SDS011;12359;49.716;9.212;2022-09-03T12:56:39;3.50;;;2.80;;
24223;SDS011;12359;49.716;9.212;2022-09-03T12:59:10;3.80;;;2.53;;
24223;SDS011;12359;49.716;9.212;2022-09-03T13:01:44;2.88;;;2.38;;
24223;SDS011;12359;49.716;9.212;2022-09-03T13:04:24;3.17;;;2.87;;
24223;SDS011;12359;49.716;9.212;2022-09-03T13:07:00;2.90;;;2.47;;
24223;SDS011;12359;49.716;9.212;2022-09-03T13:09:46;3.72;;;2.90;;
24223;SDS011;12359;49.716;9.212;2022-09-03T13:12:22;4.60;;;2.22;;
24223;SDS011;12359;49.716;9.212;2022-09-03T13:14:54;2.95;;;2.22;;
24223;SDS011;12359;49.716;9.212;2022-09-03T13:17:26;1.10;;;1.02;;
24223;SDS011;12359;49.716;9.212;2022-09-03T13:20:02;1.40;;;1.30;;
24223;SDS011;12359;49.716;9.212;2022-09-03T13:28:39;2.00;;;1.40;;
24223;SDS011;12359;49.716;9.212;2022-09-03T13:34:08;2.00;;;1.80;;
24223;SDS011;12359;49.716;9.212;2022-09-03T13:39:24;5.22;;;1.83;;
24223;SDS011;12359;49.716;9.212;2022-09-03T13:41:54;2.22;;;1.88;;
24223;SDS011;12359;49.716;9.212;2022-09-03T13:57:16;1.88;;;1.27;;
24223;SDS011;12359;49.716;9.212;2022-09-03T14:07:52;1.55;;;1.45;;
24223;SDS011;12359;49.716;9.212;2022-09-03T14:16:36;1.92;;;1.70;;
24223;SDS011;12359;49.716;9.212;2022-09-03T14:19:05;1.98;;;1.70;;
24223;SDS011;12359;49.716;9.212;2022-09-03T14:24:26;1.30;;;1.20;;
24223;SDS011;12359;49.716;9.212;2022-09-03T14:27:21;3.00;;;2.30;;
24223;SDS011;12359;49.716;9.212;2022-09-03T14:30:38;1.85;;;1.70;;
24223;SDS011;12359;49.716;9.212;2022-09-03T14:35:52;3.65;;;1.70;;
24223;SDS011;12359;49.716;9.212;2022-09-03T14:41:03;1.38;;;1.27;;
24223;SDS011;12359;49.716;9.212;2022-09-03T15:00:20;1.10;;;1.00;;
24223;SDS011;12359;49.716;9.212;2022-09-03T15:03:17;1.10;;;1.00;;
24223;SDS011;12359;49.716;9.212;2022-09-03T15:05:48;1.17;;;1.08;;
24223;SDS011;12359;49.716;9.212;2022-09-03T15:11:21;0.80;;;0.75;;
24223;SDS011;12359;49.716;9.212;2022-09-03T15:13:51;1.13;;;1.02;;
24223;SDS011;12359;49.716;9.212;2022-09-03T15:27:30;2.10;;;1.00;;
24223;SDS011;12359;49.716;9.212;2022-09-03T15:30:19;0.80;;;0.77;;
24223;SDS011;12359;49.716;9.212;2022-09-03T15:37:56;1.00;;;0.93;;
24223;SDS011;12359;49.716;9.212;2022-09-03T15:40:34;1.13;;;1.02;;
24223;SDS011;12359;49.716;9.212;2022-09-03T15:43:08;1.83;;;0.77;;
24223;SDS011;12359;49.716;9.212;2022-09-03T15:46:48;4.32;;;1.38;;
24223;SDS011;12359;49.716;9.212;2022-09-03T15:51:29;2.80;;;1.55;;
24223;SDS011;12359;49.716;9.212;2022-09-03T15:54:08;1.67;;;1.02;;
24223;SDS011;12359;49.716;9.212;2022-09-03T15:56:52;1.20;;;1.10;;
24223;SDS011;12359;49.716;9.212;2022-09-03T16:02:12;1.95;;;1.27;;
24223;SDS011;12359;49.716;9.212;2022-09-03T16:15:34;3.83;;;1.80;;
24223;SDS011;12359;49.716;9.212;2022-09-03T16:28:54;5.05;;;1.63;;
24223;SDS011;12359;49.716;9.212;2022-09-03T16:34:16;4.80;;;1.80;;
24223;SDS011;12359;49.716;9.212;2022-09-03T16:45:22;1.88;;;1.77;;
24223;SDS011;12359;49.716;9.212;2022-09-03T16:50:48;7.38;;;6.60;;
24223;SDS011;12359;49.716;9.212;2022-09-03T16:59:53;2.20;;;2.05;;
24223;SDS011;12359;49.716;9.212;2022-09-03T17:07:43;2.30;;;2.10;;
24223;SDS011;12359;49.716;9.212;2022-09-03T17:10:30;1.55;;;1.45;;
24223;SDS011;12359;49.716;9.212;2022-09-03T17:53:59;5.03;;;2.40;;
24223;SDS011;12359;49.716;9.212;2022-09-03T17:59:04;3.03;;;2.50;;
24223;SDS011;12359;49.716;9.212;2022-09-03T18:01:47;2.47;;;2.28;;
24223;SDS011;12359;49.716;9.212;2022-09-03T18:04:52;2.97;;;2.60;;
24223;SDS011;12359;49.716;9.212;2022-09-03T18:07:23;2.97;;;2.72;;
24223;SDS011;12359;49.716;9.212;2022-09-03T18:15:48;2.50;;;2.20;;
24223;SDS011;12359;49.716;9.212;2022-09-03T18:18:19;3.80;;;2.92;;
24223;SDS011;12359;49.716;9.212;2022-09-03T18:20:54;3.17;;;2.63;;
24223;SDS011;12359;49.716;9.212;2022-09-03T18:23:51;3.00;;;2.53;;
24223;SDS011;12359;49.716;9.212;2022-09-03T18:26:44;3.42;;;2.70;;
24223;SDS011;12359;49.716;9.212;2022-09-03T18:29:54;7.53;;;2.58;;
24223;SDS011;12359;49.716;9.212;2022-09-03T18:32:44;5.22;;;2.15;;
24223;SDS011;12359;49.716;9.212;2022-09-03T18:35:29;3.13;;;2.63;;
24223;SDS011;12359;49.716;9.212;2022-09-03T18:38:14;3.78;;;2.53;;
24223;SDS011;12359;49.716;9.212;2022-09-03T18:44:06;2.00;;;1.90;;
24223;SDS011;12359;49.716;9.212;2022-09-03T19:11:05;2.28;;;1.70;;
24223;SDS011;12359;49.716;9.212;2022-09-03T19:13:57;2.40;;;2.20;;
24223;SDS011;12359;49.716;9.212;2022-09-03T19:17:06;3.13;;;2.72;;
24223;SDS011;12359;49.716;9.212;2022-09-03T19:22:56;4.18;;;2.28;;
24223;SDS011;12359;49.716;9.212;2022-09-03T19:25:40;1.95;;;1.85;;
24223;SDS011;12359;49.716;9.212;2022-09-03T19:28:28;5.07;;;2.35;;
24223;SDS011;12359;49.716;9.212;2022-09-03T19:37:54;2.33;;;2.08;;
24223;SDS011;12359;49.716;9.212;2022-09-03T19:46:46;3.38;;;2.67;;
24223;SDS011;12359;49.716;9.212;2022-09-03T19:53:00;2.17;;;1.95;;
24223;SDS011;12359;49.716;9.212;2022-09-03T19:55:51;1.80;;;1.70;;
24223;SDS011;12359;49.716;9.212;2022-09-03T19:58:39;2.40;;;2.20;;
24223;SDS011;12359;49.716;9.212;2022-09-03T20:01:35;6.70;;;2.35;;
24223;SDS011;12359;49.716;9.212;2022-09-03T20:04:22;2.35;;;2.03;;
24223;SDS011;12359;49.716;9.212;2022-09-03T20:07:13;3.30;;;2.22;;
24223;SDS011;12359;49.716;9.212;2022-09-03T20:09:59;2.05;;;1.95;;
24223;SDS011;12359;49.716;9.212;2022-09-03T20:12:48;3.50;;;2.47;;
24223;SDS011;12359;49.716;9.212;2022-09-03T20:15:19;2.65;;;1.67;;
24223;SDS011;12359;49.716;9.212;2022-09-03T20:20:43;2.50;;;2.20;;
24223;SDS011;12359;49.716;9.212;2022-09-03T20:28:49;2.22;;;2.03;;
24223;SDS011;12359;49.716;9.212;2022-09-03T20:56:14;2.28;;;2.10;;
24223;SDS011;12359;49.716;9.212;2022-09-03T21:01:33;2.60;;;2.40;;
24223;SDS011;12359;49.716;9.212;2022-09-03T21:04:14;2.80;;;2.22;;
24223;SDS011;12359;49.716;9.212;2022-09-03T21:18:04;2.95;;;2.67;;
24223;SDS011;12359;49.716;9.212;2022-09-03T21:20:45;3.50;;;3.20;;
24223;SDS011;12359;49.716;9.212;2022-09-03T21:23:28;4.07;;;3.67;;
24223;SDS011;12359;49.716;9.212;2022-09-03T21:26:08;2.90;;;2.70;;
24223;SDS011;12359;49.716;9.212;2022-09-03T21:28:57;3.25;;;2.95;;
24223;SDS011;12359;49.716;9.212;2022-09-03T21:32:00;3.72;;;3.40;;
24223;SDS011;12359;49.716;9.212;2022-09-03T21:35:10;3.00;;;2.75;;
24223;SDS011;12359;49.716;9.212;2022-09-03T21:37:57;3.13;;;2.92;;
24223;SDS011;12359;49.716;9.212;2022-09-03T21:40:27;5.18;;;2.95;;
24223;SDS011;12359;49.716;9.212;2022-09-03T21:46:14;3.72;;;2.63;;
24223;SDS011;12359;49.716;9.212;2022-09-03T21:48:31;2.85;;;2.65;;
24223;SDS011;12359;49.716;9.212;2022-09-03T21:51:12;2.90;;;2.70;;
24223;SDS011;12359;49.716;9.212;2022-09-03T21:54:07;3.65;;;2.92;;
24223;SDS011;12359;49.716;9.212;2022-09-03T21:59:31;3.90;;;3.60;;
24223;SDS011;12359;49.716;9.212;2022-09-03T22:04:28;3.90;;;3.60;;
24223;SDS011;12359;49.716;9.212;2022-09-03T22:10:31;4.32;;;3.08;;
24223;SDS011;12359;49.716;9.212;2022-09-03T22:15:15;3.33;;;3.03;;
24223;SDS011;12359;49.716;9.212;2022-09-03T22:17:47;4.00;;;3.08;;
24223;SDS011;12359;49.716;9.212;2022-09-03T22:20:23;4.78;;;3.63;;
24223;SDS011;12359;49.716;9.212;2022-09-03T22:33:26;6.32;;;3.38;;
24223;SDS011;12359;49.716;9.212;2022-09-03T22:44:07;4.88;;;3.38;;
24223;SDS011;12359;49.716;9.212;2022-09-03T22:49:50;4.00;;;3.55;;
24223;SDS011;12359;49.716;9.212;2022-09-03T22:52:27;3.53;;;3.20;;
24223;SDS011;12359;49.716;9.212;2022-09-03T22:57:35;4.57;;;3.33;;
24223;SDS011;12359;49.716;9.212;2022-09-03T23:00:08;4.10;;;3.70;;
24223;SDS011;12359;49.716;9.212;2022-09-03T23:02:34;3.88;;;3.50;;
24223;SDS011;12359;49.716;9.212;2022-09-03T23:07:53;4.03;;;3.45;;
24223;SDS011;12359;49.716;9.212;2022-09-03T23:10:31;3.65;;;3.35;;
24223;SDS011;12359;49.716;9.212;2022-09-03T23:15:40;6.05;;;4.60;;
24223;SDS011;12359;49.716;9.212;2022-09-03T23:18:11;7.20;;;4.10;;
24223;SDS011;12359;49.716;9.212;2022-09-03T23:21:19;3.88;;;3.53;;
24223;SDS011;12359;49.716;9.212;2022-09-03T23:23:56;4.20;;;3.80;;
24223;SDS011;12359;49.716;9.212;2022-09-03T23:29:10;4.40;;;4.00;;
24223;SDS011;12359;49.716;9.212;2022-09-03T23:31:47;4.25;;;3.85;;
24223;SDS011;12359;49.716;9.212;2022-09-03T23:34:15;4.75;;;4.05;;
24223;SDS011;12359;49.716;9.212;2022-09-03T23:47:39;4.75;;;4.05;;
24223;SDS011;12359;49.716;9.212;2022-09-03T23:52:40;4.55;;;4.13;;
24223;SDS011;12359;49.716;9.212;2022-09-03T23:55:21;3.90;;;3.47;;
